Time;durP1;ratioP1;P1;durP2;ratioP2;P2;SDS_P1;SDS_P2;PMS_P1;PMS_P2;Temp;Humidity;BMP_temperature;BMP_pressure;BME280_temperature;BME280_humidity;BME280_pressure;Samples;Min_cycle;Max_cycle;Signal;HPM_P1;HPM_P2
2021/07/09 00:01:28;;;;;;;15.45;8.95;;;;;;;;;;5110880;28;20043;-65
2021/07/09 00:03:55;;;;;;;21.50;10.27;;;;;;;;;;5109534;28;20076;-65
2021/07/09 00:06:21;;;;;;;21.48;11.75;;;;;;;;;;5110351;28;20153;-65
2021/07/09 00:08:48;;;;;;;18.35;9.55;;;;;;;;;;5108908;28;20155;-65
2021/07/09 00:11:14;;;;;;;19.15;10.60;;;;;;;;;;5110670;28;20035;-65
2021/07/09 00:13:40;;;;;;;18.95;11.43;;;;;;;;;;5109661;28;20015;-65
2021/07/09 00:16:06;;;;;;;17.42;9.60;;;;;;;;;;5110584;28;20040;-65
2021/07/09 00:18:33;;;;;;;21.92;10.82;;;;;;;;;;5110245;28;20027;-65
2021/07/09 00:20:59;;;;;;;20.98;10.95;;;;;;;;;;5110022;28;20035;-65
2021/07/09 00:23:25;;;;;;;19.58;11.45;;;;;;;;;;5109523;28;20035;-65
2021/07/09 00:25:51;;;;;;;23.73;11.88;;;;;;;;;;5110610;28;20046;-65
2021/07/09 00:28:17;;;;;;;19.45;10.77;;;;;;;;;;5109996;28;20023;-65
2021/07/09 00:30:43;;;;;;;26.65;11.45;;;;;;;;;;5110459;28;20023;-65
2021/07/09 00:33:09;;;;;;;22.65;11.38;;;;;;;;;;5110150;28;20053;-65
2021/07/09 00:35:35;;;;;;;25.80;12.20;;;;;;;;;;5109811;28;20498;-66
2021/07/09 00:38:01;;;;;;;26.02;13.43;;;;;;;;;;5109857;28;20027;-65
2021/07/09 00:40:27;;;;;;;30.83;14.63;;;;;;;;;;5105979;28;20036;-65
2021/07/09 00:42:53;;;;;;;31.20;14.32;;;;;;;;;;5108255;28;20507;-65
2021/07/09 00:45:19;;;;;;;27.67;13.52;;;;;;;;;;5109152;28;20023;-65
2021/07/09 00:47:47;;;;;;;23.38;13.23;;;;;;;;;;5110607;28;20027;-65
2021/07/09 00:50:18;;;;;;;26.77;14.23;;;;;;;;;;5110228;28;20027;-65
2021/07/09 00:52:44;;;;;;;24.73;13.25;;;;;;;;;;5110644;28;20050;-65
2021/07/09 00:55:11;;;;;;;33.33;16.48;;;;;;;;;;5109056;28;20027;-65
2021/07/09 00:57:38;;;;;;;28.45;15.00;;;;;;;;;;5110250;28;20078;-65
2021/07/09 01:00:05;;;;;;;35.00;15.80;;;;;;;;;;5109631;28;20024;-65
2021/07/09 01:02:31;;;;;;;30.38;17.02;;;;;;;;;;5107722;28;20028;-65
2021/07/09 01:04:58;;;;;;;36.85;17.90;;;;;;;;;;5108792;28;20020;-65
2021/07/09 01:07:27;;;;;;;36.47;20.25;;;;;;;;;;5110022;28;20020;-65
2021/07/09 01:09:53;;;;;;;43.05;20.35;;;;;;;;;;5110201;28;20030;-65
2021/07/09 01:12:19;;;;;;;40.45;18.42;;;;;;;;;;5110386;28;20026;-65
2021/07/09 01:14:46;;;;;;;32.63;17.55;;;;;;;;;;5108786;28;20463;-65
2021/07/09 01:17:12;;;;;;;36.00;18.60;;;;;;;;;;5091243;28;20051;-65
2021/07/09 01:19:39;;;;;;;34.72;18.70;;;;;;;;;;5106803;28;20030;-65
2021/07/09 01:22:06;;;;;;;34.08;18.55;;;;;;;;;;5091565;28;20112;-65
2021/07/09 01:24:32;;;;;;;33.75;16.88;;;;;;;;;;5108380;28;20043;-65
2021/07/09 01:26:58;;;;;;;37.55;18.38;;;;;;;;;;5091903;28;20032;-66
2021/07/09 01:29:24;;;;;;;38.88;19.65;;;;;;;;;;5115657;28;20483;-65
2021/07/09 01:31:50;;;;;;;34.10;18.27;;;;;;;;;;5091187;28;20452;-65
2021/07/09 01:34:16;;;;;;;31.23;18.02;;;;;;;;;;5110933;28;20448;-65
2021/07/09 01:36:42;;;;;;;31.92;17.20;;;;;;;;;;5113208;28;20026;-65
2021/07/09 01:39:09;;;;;;;32.60;18.13;;;;;;;;;;5115047;27;20035;-65
2021/07/09 01:41:35;;;;;;;31.80;15.90;;;;;;;;;;5094991;28;20562;-65
2021/07/09 01:44:02;;;;;;;31.40;17.75;;;;;;;;;;5112714;28;20023;-65
2021/07/09 01:46:29;;;;;;;30.90;16.15;;;;;;;;;;5114021;28;20449;-65
2021/07/09 01:48:55;;;;;;;33.63;16.45;;;;;;;;;;5113314;28;20088;-65
2021/07/09 01:51:21;;;;;;;29.30;16.10;;;;;;;;;;5094466;28;20822;-65
2021/07/09 01:53:47;;;;;;;31.85;15.57;;;;;;;;;;5112162;28;20149;-64
2021/07/09 01:56:13;;;;;;;29.10;15.93;;;;;;;;;;5095008;28;20032;-65
2021/07/09 01:58:40;;;;;;;26.48;14.93;;;;;;;;;;5113792;28;20057;-65
2021/07/09 02:01:06;;;;;;;34.67;15.90;;;;;;;;;;5112625;28;20042;-65
2021/07/09 02:03:33;;;;;;;26.83;15.05;;;;;;;;;;5093097;28;20027;-65
2021/07/09 02:05:59;;;;;;;27.08;15.07;;;;;;;;;;5113024;28;20084;-65
2021/07/09 02:08:25;;;;;;;26.67;13.85;;;;;;;;;;5113041;28;20034;-65
2021/07/09 02:10:51;;;;;;;29.15;14.90;;;;;;;;;;5112827;28;20130;-65
2021/07/09 02:13:17;;;;;;;29.90;14.88;;;;;;;;;;5111924;28;20024;-65
2021/07/09 02:15:44;;;;;;;27.38;14.45;;;;;;;;;;5112991;28;20027;-65
2021/07/09 02:18:11;;;;;;;30.73;15.30;;;;;;;;;;5111819;28;20058;-65
2021/07/09 02:20:38;;;;;;;28.15;14.15;;;;;;;;;;5112032;28;20036;-65
2021/07/09 02:23:05;;;;;;;26.00;13.65;;;;;;;;;;5094028;28;20308;-65
2021/07/09 02:25:32;;;;;;;23.55;13.48;;;;;;;;;;5115006;27;20031;-65
2021/07/09 02:27:58;;;;;;;28.77;15.27;;;;;;;;;;5099735;27;20383;-66
2021/07/09 02:30:25;;;;;;;25.33;14.13;;;;;;;;;;5099899;28;20475;-65
2021/07/09 02:32:51;;;;;;;25.92;13.23;;;;;;;;;;5094011;28;20644;-65
2021/07/09 02:35:22;;;;;;;25.17;14.20;;;;;;;;;;5110947;28;20028;-65
2021/07/09 02:37:48;;;;;;;28.58;13.73;;;;;;;;;;5109843;28;20085;-65
2021/07/09 02:40:16;;;;;;;31.35;15.90;;;;;;;;;;5114214;27;20047;-65
2021/07/09 02:42:52;;;;;;;28.33;13.63;;;;;;;;;;5112805;28;20034;-65
2021/07/09 02:45:18;;;;;;;27.23;14.18;;;;;;;;;;5110754;28;20035;-65
2021/07/09 02:47:45;;;;;;;26.70;13.00;;;;;;;;;;5112530;28;20027;-65
2021/07/09 02:50:13;;;;;;;28.90;14.27;;;;;;;;;;5092844;28;20024;-65
2021/07/09 02:52:39;;;;;;;26.20;14.05;;;;;;;;;;5093492;28;20043;-65
2021/07/09 02:55:06;;;;;;;26.65;14.60;;;;;;;;;;5110627;28;20035;-65
2021/07/09 02:57:32;;;;;;;28.15;13.55;;;;;;;;;;5112185;28;20069;-65
2021/07/09 02:59:58;;;;;;;26.13;13.23;;;;;;;;;;5093992;28;20027;-65
2021/07/09 03:02:25;;;;;;;29.27;15.57;;;;;;;;;;5111334;28;20031;-65
2021/07/09 03:04:51;;;;;;;30.95;15.15;;;;;;;;;;5110821;28;20034;-65
2021/07/09 03:07:17;;;;;;;31.10;15.48;;;;;;;;;;5091443;28;20031;-65
2021/07/09 03:09:43;;;;;;;27.92;15.38;;;;;;;;;;5111593;28;20019;-65
2021/07/09 03:12:09;;;;;;;31.88;16.58;;;;;;;;;;5111765;28;20030;-65
2021/07/09 03:14:35;;;;;;;27.48;13.95;;;;;;;;;;5110834;28;20030;-65
2021/07/09 03:17:02;;;;;;;29.05;14.38;;;;;;;;;;5111759;28;20055;-65
2021/07/09 03:19:28;;;;;;;32.40;14.88;;;;;;;;;;5111457;28;20039;-65
2021/07/09 03:21:54;;;;;;;28.63;14.93;;;;;;;;;;5111322;28;20020;-65
2021/07/09 03:24:20;;;;;;;29.35;15.23;;;;;;;;;;5110264;27;20030;-65
2021/07/09 03:26:46;;;;;;;25.95;13.90;;;;;;;;;;5111539;28;20035;-65
2021/07/09 03:29:12;;;;;;;26.77;13.93;;;;;;;;;;5111588;28;20020;-65
2021/07/09 03:31:38;;;;;;;26.02;14.93;;;;;;;;;;5110057;28;20023;-65
2021/07/09 03:34:04;;;;;;;26.02;14.55;;;;;;;;;;5110454;28;20034;-65
2021/07/09 03:36:30;;;;;;;29.05;15.23;;;;;;;;;;5093126;28;20479;-65
2021/07/09 03:38:57;;;;;;;28.25;15.00;;;;;;;;;;5117090;27;20031;-65
2021/07/09 03:41:24;;;;;;;28.23;15.45;;;;;;;;;;5110362;28;20034;-65
2021/07/09 03:43:50;;;;;;;25.63;15.77;;;;;;;;;;5110285;28;20173;-65
2021/07/09 03:46:16;;;;;;;29.33;14.80;;;;;;;;;;5092982;28;20027;-65
2021/07/09 03:48:43;;;;;;;27.08;14.93;;;;;;;;;;5110695;28;20028;-65
2021/07/09 03:51:09;;;;;;;24.40;14.57;;;;;;;;;;5106321;28;20048;-66
2021/07/09 03:53:35;;;;;;;27.13;14.85;;;;;;;;;;5109545;28;20016;-65
2021/07/09 03:56:01;;;;;;;30.00;15.57;;;;;;;;;;5110057;28;20024;-66
2021/07/09 03:58:27;;;;;;;26.88;15.80;;;;;;;;;;5109921;28;20102;-65
2021/07/09 04:00:54;;;;;;;31.67;16.75;;;;;;;;;;5110781;28;20554;-65
2021/07/09 04:03:20;;;;;;;30.00;15.35;;;;;;;;;;5110377;28;20107;-65
2021/07/09 04:05:46;;;;;;;28.13;15.05;;;;;;;;;;5108478;28;20032;-65
2021/07/09 04:08:12;;;;;;;27.02;16.77;;;;;;;;;;5092130;28;20118;-66
2021/07/09 04:10:38;;;;;;;27.95;14.50;;;;;;;;;;5110569;28;20580;-65
2021/07/09 04:13:04;;;;;;;24.33;14.35;;;;;;;;;;5110718;28;20421;-65
2021/07/09 04:15:30;;;;;;;29.35;15.48;;;;;;;;;;5090915;28;20032;-65
2021/07/09 04:17:56;;;;;;;27.60;15.20;;;;;;;;;;5109941;28;20495;-65
2021/07/09 04:20:22;;;;;;;29.23;15.30;;;;;;;;;;5091133;28;20502;-65
2021/07/09 04:22:48;;;;;;;31.35;15.23;;;;;;;;;;5110238;28;20028;-65
2021/07/09 04:25:14;;;;;;;28.60;15.98;;;;;;;;;;5090799;28;20067;-65
2021/07/09 04:27:41;;;;;;;30.77;16.48;;;;;;;;;;5112172;27;20406;-65
2021/07/09 04:30:11;;;;;;;32.08;16.33;;;;;;;;;;5094315;28;20819;-65
2021/07/09 04:32:37;;;;;;;28.88;16.13;;;;;;;;;;5110202;28;20015;-65
2021/07/09 04:35:03;;;;;;;29.88;15.13;;;;;;;;;;5108309;28;20042;-65
2021/07/09 04:37:30;;;;;;;27.73;15.45;;;;;;;;;;5110448;28;20024;-65
2021/07/09 04:39:56;;;;;;;27.67;15.95;;;;;;;;;;5115739;27;20026;-65
2021/07/09 04:42:22;;;;;;;27.92;15.77;;;;;;;;;;5110384;28;20020;-65
2021/07/09 04:44:48;;;;;;;27.63;15.52;;;;;;;;;;5108020;28;20071;-65
2021/07/09 04:47:14;;;;;;;28.38;15.27;;;;;;;;;;5109824;28;20119;-65
2021/07/09 04:49:40;;;;;;;27.17;14.40;;;;;;;;;;5110492;28;20059;-65
2021/07/09 04:52:07;;;;;;;28.90;16.35;;;;;;;;;;5110078;28;20067;-65
2021/07/09 04:54:33;;;;;;;29.52;15.30;;;;;;;;;;5090645;28;20039;-66
2021/07/09 04:56:59;;;;;;;24.83;13.95;;;;;;;;;;5110251;28;20038;-65
2021/07/09 04:59:25;;;;;;;24.95;14.23;;;;;;;;;;5091193;28;20085;-66
2021/07/09 05:01:51;;;;;;;24.50;14.63;;;;;;;;;;5109192;28;20038;-65
2021/07/09 05:04:17;;;;;;;27.80;15.45;;;;;;;;;;5108736;28;20028;-65
2021/07/09 05:06:43;;;;;;;26.83;14.55;;;;;;;;;;5104346;28;20097;-66
2021/07/09 05:09:09;;;;;;;24.50;13.95;;;;;;;;;;5076440;28;20024;-66
2021/07/09 05:11:37;;;;;;;25.58;14.05;;;;;;;;;;5111481;27;20081;-65
2021/07/09 05:14:04;;;;;;;31.17;16.00;;;;;;;;;;5112549;28;20031;-66
2021/07/09 05:16:30;;;;;;;29.50;15.13;;;;;;;;;;5109416;28;20030;-65
2021/07/09 05:18:56;;;;;;;29.65;15.23;;;;;;;;;;5113887;28;20584;-65
2021/07/09 05:21:22;;;;;;;31.60;17.88;;;;;;;;;;5100041;28;20035;-65
2021/07/09 05:23:49;;;;;;;34.40;17.65;;;;;;;;;;5109967;28;20020;-65
2021/07/09 05:26:15;;;;;;;32.80;18.10;;;;;;;;;;5112858;28;20036;-66
2021/07/09 05:28:41;;;;;;;36.83;20.25;;;;;;;;;;5112424;28;20024;-66
2021/07/09 05:31:07;;;;;;;37.35;19.00;;;;;;;;;;5112415;28;20084;-65
2021/07/09 05:33:34;;;;;;;35.28;19.13;;;;;;;;;;5111407;28;20027;-66
2021/07/09 05:36:00;;;;;;;44.33;20.23;;;;;;;;;;5082084;28;20031;-65
2021/07/09 05:38:26;;;;;;;39.47;20.13;;;;;;;;;;5112687;27;20413;-65
2021/07/09 05:40:52;;;;;;;39.15;19.85;;;;;;;;;;5093143;28;20028;-65
2021/07/09 05:43:20;;;;;;;43.65;21.15;;;;;;;;;;5087035;28;20043;-66
2021/07/09 05:45:46;;;;;;;47.17;22.13;;;;;;;;;;5110060;28;20403;-65
2021/07/09 05:48:13;;;;;;;42.10;20.88;;;;;;;;;;5092408;28;20049;-65
2021/07/09 05:50:40;;;;;;;52.85;23.55;;;;;;;;;;5108922;28;20051;-65
2021/07/09 05:53:06;;;;;;;46.22;23.50;;;;;;;;;;5093710;28;20160;-65
2021/07/09 05:55:32;;;;;;;49.45;23.48;;;;;;;;;;5110055;28;20534;-66
2021/07/09 05:57:58;;;;;;;55.20;24.13;;;;;;;;;;5104931;28;20519;-65
2021/07/09 06:00:24;;;;;;;51.92;25.05;;;;;;;;;;5097864;28;20144;-65
2021/07/09 06:02:51;;;;;;;53.85;23.83;;;;;;;;;;5111449;28;20023;-65
2021/07/09 06:05:17;;;;;;;52.28;23.00;;;;;;;;;;5108585;28;20038;-65
2021/07/09 06:07:43;;;;;;;51.63;23.83;;;;;;;;;;5090148;28;20028;-65
2021/07/09 06:10:09;;;;;;;56.63;24.33;;;;;;;;;;5088122;28;20400;-65
2021/07/09 06:12:35;;;;;;;54.45;25.65;;;;;;;;;;5104485;28;20073;-65
2021/07/09 06:15:01;;;;;;;46.15;23.98;;;;;;;;;;5106764;28;20030;-65
2021/07/09 06:17:28;;;;;;;66.03;25.63;;;;;;;;;;5096389;28;20024;-66
2021/07/09 06:19:54;;;;;;;51.25;23.65;;;;;;;;;;5109171;28;20193;-65
2021/07/09 06:22:20;;;;;;;53.28;24.58;;;;;;;;;;5107019;28;20032;-65
2021/07/09 06:24:46;;;;;;;53.85;25.27;;;;;;;;;;5101776;28;20024;-65
2021/07/09 06:27:12;;;;;;;53.42;24.75;;;;;;;;;;5091242;28;20027;-65
2021/07/09 06:29:38;;;;;;;51.35;25.25;;;;;;;;;;5111382;28;20028;-65
2021/07/09 06:32:04;;;;;;;51.97;24.60;;;;;;;;;;5111788;28;20034;-66
2021/07/09 06:34:31;;;;;;;52.42;27.00;;;;;;;;;;5115603;27;20403;-65
2021/07/09 06:36:58;;;;;;;52.60;25.42;;;;;;;;;;5111385;28;20024;-65
2021/07/09 06:39:24;;;;;;;56.72;25.85;;;;;;;;;;5112828;27;20024;-65
2021/07/09 06:41:50;;;;;;;52.28;25.63;;;;;;;;;;5110404;28;20024;-65
2021/07/09 06:44:16;;;;;;;48.83;25.23;;;;;;;;;;5107245;28;20492;-65
2021/07/09 06:46:43;;;;;;;56.83;26.15;;;;;;;;;;5111814;28;20038;-65
2021/07/09 06:49:10;;;;;;;54.67;25.33;;;;;;;;;;5108936;28;20028;-65
2021/07/09 06:51:36;;;;;;;49.85;25.88;;;;;;;;;;5112448;27;20027;-65
2021/07/09 06:54:02;;;;;;;62.47;27.15;;;;;;;;;;5106913;28;20545;-65
2021/07/09 06:56:28;;;;;;;55.40;26.67;;;;;;;;;;5109691;28;20071;-65
2021/07/09 06:58:54;;;;;;;55.97;28.25;;;;;;;;;;5111309;28;20591;-65
2021/07/09 07:01:20;;;;;;;65.78;27.35;;;;;;;;;;5102089;28;20020;-65
2021/07/09 07:03:46;;;;;;;58.15;29.10;;;;;;;;;;5106503;28;20016;-66
2021/07/09 07:06:13;;;;;;;58.60;27.63;;;;;;;;;;5111253;28;20490;-66
2021/07/09 07:08:39;;;;;;;62.17;29.42;;;;;;;;;;5115435;27;20356;-65
2021/07/09 07:11:05;;;;;;;63.30;29.70;;;;;;;;;;5111262;28;20490;-66
2021/07/09 07:13:31;;;;;;;66.72;30.92;;;;;;;;;;5108323;28;20023;-65
2021/07/09 07:15:58;;;;;;;62.40;29.05;;;;;;;;;;5091413;28;20038;-65
2021/07/09 07:18:24;;;;;;;57.00;28.60;;;;;;;;;;5111142;28;20023;-65
2021/07/09 07:20:51;;;;;;;65.75;32.20;;;;;;;;;;5106493;28;20032;-66
2021/07/09 07:23:17;;;;;;;59.47;31.42;;;;;;;;;;5103835;28;20031;-65
2021/07/09 07:25:44;;;;;;;55.13;29.48;;;;;;;;;;5109995;27;20038;-64
2021/07/09 07:28:10;;;;;;;60.88;29.20;;;;;;;;;;5110504;28;20487;-65
2021/07/09 07:30:37;;;;;;;49.40;25.88;;;;;;;;;;5100653;28;20411;-65
2021/07/09 07:33:03;;;;;;;50.70;27.83;;;;;;;;;;5098215;28;20427;-66
2021/07/09 07:35:30;;;;;;;55.58;25.95;;;;;;;;;;5107071;28;20012;-65
2021/07/09 07:37:56;;;;;;;52.47;24.38;;;;;;;;;;5109676;28;20027;-65
2021/07/09 07:40:23;;;;;;;43.05;23.30;;;;;;;;;;5108199;28;20066;-65
2021/07/09 07:42:49;;;;;;;35.45;20.48;;;;;;;;;;5102873;28;20499;-65
2021/07/09 07:45:15;;;;;;;40.42;20.33;;;;;;;;;;5103929;28;20080;-65
2021/07/09 07:47:41;;;;;;;42.90;22.63;;;;;;;;;;5107547;28;20020;-65
2021/07/09 07:50:08;;;;;;;38.72;19.88;;;;;;;;;;5093555;28;20024;-65
2021/07/09 07:52:34;;;;;;;38.33;21.30;;;;;;;;;;5099470;28;20118;-65
2021/07/09 07:55:00;;;;;;;37.45;19.65;;;;;;;;;;5104778;28;20085;-65
2021/07/09 07:57:26;;;;;;;39.72;20.85;;;;;;;;;;5107792;28;20034;-65
2021/07/09 07:59:52;;;;;;;36.72;19.80;;;;;;;;;;5093904;28;20053;-65
2021/07/09 08:02:18;;;;;;;38.28;21.33;;;;;;;;;;5092694;28;20410;-65
2021/07/09 08:04:45;;;;;;;43.83;21.13;;;;;;;;;;5097887;28;20515;-64
2021/07/09 08:07:13;;;;;;;43.70;20.20;;;;;;;;;;5107359;28;20575;-65
2021/07/09 08:09:39;;;;;;;31.95;18.88;;;;;;;;;;5086423;28;20019;-65
2021/07/09 08:12:07;;;;;;;37.45;18.75;;;;;;;;;;5092663;28;20024;-65
2021/07/09 08:14:33;;;;;;;31.45;17.00;;;;;;;;;;5109279;27;20031;-65
2021/07/09 08:16:59;;;;;;;30.73;17.60;;;;;;;;;;5109992;27;20020;-65
2021/07/09 08:19:25;;;;;;;32.88;18.58;;;;;;;;;;5089538;28;20035;-65
2021/07/09 08:21:51;;;;;;;37.58;19.70;;;;;;;;;;5103943;28;20031;-65
2021/07/09 08:24:18;;;;;;;32.97;20.02;;;;;;;;;;5074494;28;20028;-65
2021/07/09 08:26:44;;;;;;;32.53;18.50;;;;;;;;;;5074731;28;20040;-65
2021/07/09 08:29:10;;;;;;;36.83;19.83;;;;;;;;;;5085094;28;20526;-65
2021/07/09 08:31:37;;;;;;;36.22;20.52;;;;;;;;;;5102531;28;20019;-65
2021/07/09 08:34:03;;;;;;;43.80;19.80;;;;;;;;;;5104899;27;20062;-65
2021/07/09 08:36:29;;;;;;;37.72;20.65;;;;;;;;;;5102212;28;20023;-65
2021/07/09 08:38:55;;;;;;;39.45;20.40;;;;;;;;;;5089355;28;20578;-65
2021/07/09 08:41:21;;;;;;;35.28;20.95;;;;;;;;;;5090582;28;20020;-65
2021/07/09 08:43:48;;;;;;;37.92;20.63;;;;;;;;;;5097412;28;20410;-65
2021/07/09 08:46:14;;;;;;;35.30;21.23;;;;;;;;;;5092277;28;20119;-64
2021/07/09 08:48:41;;;;;;;36.90;21.08;;;;;;;;;;5103759;28;20562;-65
2021/07/09 08:51:08;;;;;;;35.65;20.40;;;;;;;;;;5108023;27;20035;-65
2021/07/09 08:53:35;;;;;;;37.65;20.52;;;;;;;;;;5085515;28;20404;-65
2021/07/09 08:56:01;;;;;;;38.10;20.88;;;;;;;;;;5102346;28;20085;-65
2021/07/09 08:58:27;;;;;;;34.72;21.48;;;;;;;;;;5095692;28;20055;-65
2021/07/09 09:00:53;;;;;;;37.47;20.42;;;;;;;;;;5102135;28;20024;-66
2021/07/09 09:03:24;;;;;;;32.25;20.10;;;;;;;;;;5106255;28;20269;-65
2021/07/09 09:05:50;;;;;;;36.15;21.55;;;;;;;;;;5105819;27;20024;-65
2021/07/09 09:08:18;;;;;;;30.25;19.13;;;;;;;;;;5112888;27;20029;-65
2021/07/09 09:10:44;;;;;;;32.88;17.83;;;;;;;;;;5098212;28;20544;-65
2021/07/09 09:13:10;;;;;;;27.17;17.13;;;;;;;;;;5089914;28;20019;-65
2021/07/09 09:15:37;;;;;;;23.60;14.80;;;;;;;;;;5102175;28;20015;-65
2021/07/09 09:18:18;;;;;;;25.25;14.98;;;;;;;;;;5109531;28;20020;-64
2021/07/09 09:20:44;;;;;;;28.23;16.65;;;;;;;;;;5089565;28;20110;-65
2021/07/09 09:23:12;;;;;;;30.77;17.15;;;;;;;;;;5100871;27;20031;-66
2021/07/09 09:25:39;;;;;;;24.02;15.90;;;;;;;;;;5090933;28;20556;-65
2021/07/09 09:28:08;;;;;;;28.45;16.33;;;;;;;;;;5092727;28;20298;-64
2021/07/09 09:30:35;;;;;;;27.10;17.23;;;;;;;;;;5088995;28;20013;-65
2021/07/09 09:33:03;;;;;;;22.98;15.45;;;;;;;;;;5103061;28;20210;-65
2021/07/09 09:35:37;;;;;;;23.63;14.90;;;;;;;;;;5101541;28;20027;-65
2021/07/09 09:38:04;;;;;;;24.25;14.75;;;;;;;;;;5103130;28;20028;-65
2021/07/09 09:40:32;;;;;;;30.10;17.30;;;;;;;;;;5110444;28;20482;-65
2021/07/09 09:42:58;;;;;;;23.45;14.20;;;;;;;;;;5080916;28;20037;-64
2021/07/09 09:45:25;;;;;;;27.63;14.90;;;;;;;;;;5095794;28;20044;-64
2021/07/09 09:47:51;;;;;;;25.80;15.43;;;;;;;;;;5089258;28;20023;-65
2021/07/09 09:50:18;;;;;;;25.42;13.68;;;;;;;;;;5098811;28;20028;-64
2021/07/09 09:52:48;;;;;;;19.83;12.45;;;;;;;;;;5088920;28;20038;-65
2021/07/09 09:55:22;;;;;;;21.52;13.20;;;;;;;;;;5108079;28;20023;-65
2021/07/09 09:57:49;;;;;;;19.25;11.82;;;;;;;;;;5111372;27;20012;-65
2021/07/09 10:00:21;;;;;;;21.35;12.40;;;;;;;;;;5092946;28;20024;-65
2021/07/09 10:02:48;;;;;;;19.58;11.00;;;;;;;;;;5100240;28;20016;-65
2021/07/09 10:05:14;;;;;;;20.92;11.93;;;;;;;;;;5108110;28;20020;-64
2021/07/09 10:07:40;;;;;;;19.70;12.27;;;;;;;;;;5110807;28;20407;-65
2021/07/09 10:10:06;;;;;;;19.48;11.68;;;;;;;;;;5106454;28;20028;-65
2021/07/09 10:12:33;;;;;;;18.33;10.50;;;;;;;;;;5096324;28;20035;-64
2021/07/09 10:15:00;;;;;;;21.63;12.02;;;;;;;;;;5098577;28;20129;-65
2021/07/09 10:17:27;;;;;;;18.80;11.52;;;;;;;;;;5104805;28;20036;-65
2021/07/09 10:19:54;;;;;;;21.35;11.88;;;;;;;;;;5094618;28;20020;-65
2021/07/09 10:22:20;;;;;;;24.20;11.68;;;;;;;;;;5095945;28;20181;-65
2021/07/09 10:24:46;;;;;;;20.20;11.60;;;;;;;;;;5098442;28;20243;-65
2021/07/09 10:27:13;;;;;;;21.20;11.50;;;;;;;;;;5099316;28;20023;-65
2021/07/09 10:29:44;;;;;;;19.52;11.93;;;;;;;;;;5093845;28;20022;-65
2021/07/09 10:32:10;;;;;;;22.75;11.50;;;;;;;;;;5105797;27;20235;-65
2021/07/09 10:34:38;;;;;;;21.80;11.45;;;;;;;;;;5093800;28;20027;-65
2021/07/09 10:37:04;;;;;;;21.23;11.15;;;;;;;;;;5103066;28;20020;-65
2021/07/09 10:39:30;;;;;;;20.83;12.07;;;;;;;;;;5092298;28;20507;-65
2021/07/09 10:41:57;;;;;;;20.20;10.02;;;;;;;;;;5097948;28;20011;-66
2021/07/09 10:44:23;;;;;;;21.02;12.25;;;;;;;;;;5111509;28;20038;-66
2021/07/09 10:46:49;;;;;;;20.92;11.40;;;;;;;;;;5100644;28;20035;-65
2021/07/09 10:49:34;;;;;;;16.92;10.70;;;;;;;;;;5101584;28;20051;-65
2021/07/09 10:52:00;;;;;;;16.75;10.13;;;;;;;;;;5092909;28;20396;-65
2021/07/09 10:54:30;;;;;;;18.30;11.68;;;;;;;;;;5093722;28;20023;-65
2021/07/09 10:57:15;;;;;;;19.65;9.82;;;;;;;;;;5087907;28;20023;-66
2021/07/09 11:00:00;;;;;;;17.42;10.48;;;;;;;;;;5075103;28;20081;-66
2021/07/09 11:02:58;;;;;;;20.10;10.88;;;;;;;;;;5103157;28;20254;-65
2021/07/09 11:05:42;;;;;;;17.63;9.93;;;;;;;;;;5092887;28;20402;-65
2021/07/09 11:08:27;;;;;;;17.50;9.90;;;;;;;;;;5101732;28;20032;-65
2021/07/09 11:11:00;;;;;;;18.73;10.90;;;;;;;;;;5104716;28;20530;-65
2021/07/09 11:16:27;;;;;;;19.52;10.50;;;;;;;;;;5101477;28;20534;-65
2021/07/09 11:19:02;;;;;;;16.52;9.15;;;;;;;;;;5103633;28;20024;-65
2021/07/09 11:21:32;;;;;;;13.73;9.13;;;;;;;;;;5105057;28;20046;-65
2021/07/09 11:23:59;;;;;;;17.80;9.95;;;;;;;;;;5112170;27;20024;-67
2021/07/09 11:26:51;;;;;;;21.00;10.98;;;;;;;;;;5089595;28;20063;-65
2021/07/09 11:29:29;;;;;;;19.20;11.48;;;;;;;;;;5102117;28;20044;-65
2021/07/09 11:31:58;;;;;;;18.35;11.38;;;;;;;;;;5103704;28;20024;-65
2021/07/09 11:34:25;;;;;;;20.50;12.27;;;;;;;;;;5110866;28;20042;-64
2021/07/09 11:36:59;;;;;;;18.88;11.05;;;;;;;;;;5110969;28;20346;-64
2021/07/09 11:39:39;;;;;;;18.40;11.75;;;;;;;;;;5101197;28;20040;-64
2021/07/09 11:42:06;;;;;;;18.75;11.73;;;;;;;;;;5099133;28;20467;-65
2021/07/09 11:44:35;;;;;;;17.45;12.20;;;;;;;;;;5088870;28;20082;-64
2021/07/09 11:47:03;;;;;;;20.30;12.15;;;;;;;;;;5099616;28;20023;-65
2021/07/09 11:49:30;;;;;;;18.35;12.65;;;;;;;;;;5105878;28;20032;-65
2021/07/09 11:52:01;;;;;;;19.98;12.18;;;;;;;;;;5107355;28;20388;-64
2021/07/09 11:54:28;;;;;;;19.67;12.02;;;;;;;;;;5102616;28;20024;-65
2021/07/09 11:57:08;;;;;;;19.40;11.15;;;;;;;;;;5092354;28;20396;-64
2021/07/09 11:59:34;;;;;;;18.75;10.98;;;;;;;;;;5091416;28;20019;-64
2021/07/09 12:02:00;;;;;;;19.70;10.88;;;;;;;;;;5099025;28;20028;-64
2021/07/09 12:04:30;;;;;;;17.83;10.55;;;;;;;;;;5106687;28;20111;-64
2021/07/09 12:07:15;;;;;;;18.45;10.55;;;;;;;;;;5099505;28;20054;-64
2021/07/09 12:09:44;;;;;;;17.02;9.32;;;;;;;;;;5108872;28;20031;-64
2021/07/09 12:12:10;;;;;;;14.85;9.10;;;;;;;;;;5081139;28;20039;-64
2021/07/09 12:14:51;;;;;;;14.88;8.25;;;;;;;;;;5123470;27;20030;-64
2021/07/09 12:17:17;;;;;;;13.50;10.07;;;;;;;;;;5120168;27;20555;-64
2021/07/09 12:20:13;;;;;;;15.40;9.05;;;;;;;;;;5109769;28;20042;-64
2021/07/09 12:22:40;;;;;;;18.27;9.57;;;;;;;;;;5066823;28;20411;-64
2021/07/09 12:25:17;;;;;;;17.65;9.95;;;;;;;;;;5098201;28;20031;-64
2021/07/09 12:27:44;;;;;;;16.35;10.82;;;;;;;;;;5092846;28;20020;-64
2021/07/09 12:30:11;;;;;;;22.25;11.85;;;;;;;;;;5104714;28;20031;-64
2021/07/09 12:32:48;;;;;;;17.15;11.95;;;;;;;;;;5088666;28;20028;-64
2021/07/09 12:35:14;;;;;;;18.08;12.35;;;;;;;;;;5110156;28;20505;-64
2021/07/09 12:37:41;;;;;;;18.60;11.48;;;;;;;;;;5109149;28;20032;-64
2021/07/09 12:40:08;;;;;;;17.35;11.48;;;;;;;;;;5109784;28;20399;-63
2021/07/09 12:42:34;;;;;;;18.75;12.68;;;;;;;;;;5107303;28;20027;-64
2021/07/09 12:45:00;;;;;;;20.17;12.35;;;;;;;;;;5110098;28;20031;-64
2021/07/09 12:47:26;;;;;;;19.98;13.75;;;;;;;;;;5108898;28;20024;-63
2021/07/09 12:50:12;;;;;;;21.92;12.40;;;;;;;;;;5105818;28;20030;-65
2021/07/09 12:52:38;;;;;;;19.27;13.25;;;;;;;;;;5104567;28;20062;-64
2021/07/09 12:55:04;;;;;;;22.52;15.38;;;;;;;;;;5108762;28;20490;-64
2021/07/09 12:57:30;;;;;;;23.58;17.13;;;;;;;;;;5109280;28;20031;-65
2021/07/09 12:59:57;;;;;;;25.13;17.75;;;;;;;;;;5109428;28;20027;-64
2021/07/09 13:02:24;;;;;;;28.25;18.65;;;;;;;;;;5100181;28;20019;-64
2021/07/09 13:04:50;;;;;;;25.35;19.40;;;;;;;;;;5090997;28;20518;-64
2021/07/09 13:07:20;;;;;;;28.85;20.83;;;;;;;;;;5109917;28;20124;-64
2021/07/09 13:09:48;;;;;;;28.13;20.50;;;;;;;;;;5109298;28;20024;-65
2021/07/09 13:12:15;;;;;;;28.88;21.00;;;;;;;;;;5117430;28;20078;-65
2021/07/09 13:15:02;;;;;;;33.80;24.42;;;;;;;;;;5128649;28;20047;-63
2021/07/09 13:17:28;;;;;;;29.63;22.42;;;;;;;;;;5110621;28;20107;-64
2021/07/09 13:19:59;;;;;;;36.53;24.70;;;;;;;;;;5091512;28;20024;-65
2021/07/09 13:22:32;;;;;;;34.63;23.55;;;;;;;;;;5108570;28;20028;-64
2021/07/09 13:25:31;;;;;;;31.15;23.83;;;;;;;;;;5109940;28;20028;-64
2021/07/09 13:28:01;;;;;;;33.75;24.60;;;;;;;;;;5053073;28;20079;-64
2021/07/09 13:30:28;;;;;;;32.47;23.70;;;;;;;;;;5108584;28;20016;-64
2021/07/09 13:32:54;;;;;;;33.95;23.13;;;;;;;;;;5109339;28;20081;-64
2021/07/09 13:35:20;;;;;;;32.75;22.58;;;;;;;;;;5111550;28;20020;-64
2021/07/09 13:37:46;;;;;;;32.30;22.00;;;;;;;;;;5110693;28;20012;-64
2021/07/09 13:40:14;;;;;;;27.25;20.27;;;;;;;;;;5111491;28;20152;-64
2021/07/09 13:42:41;;;;;;;28.80;21.30;;;;;;;;;;5091132;28;20486;-64
2021/07/09 13:45:10;;;;;;;26.50;17.77;;;;;;;;;;5095006;28;20027;-63
2021/07/09 13:47:36;;;;;;;26.50;19.20;;;;;;;;;;5112766;28;20475;-64
2021/07/09 13:50:03;;;;;;;26.13;19.65;;;;;;;;;;5110440;28;20080;-64
2021/07/09 13:52:29;;;;;;;23.75;17.20;;;;;;;;;;5102460;28;20050;-64
2021/07/09 13:54:55;;;;;;;25.88;18.92;;;;;;;;;;5106702;28;20051;-65
2021/07/09 13:57:21;;;;;;;26.58;18.58;;;;;;;;;;5111725;28;20023;-64
2021/07/09 13:59:47;;;;;;;24.08;18.13;;;;;;;;;;5112196;28;20035;-64
2021/07/09 14:02:13;;;;;;;23.17;16.80;;;;;;;;;;5108893;28;20024;-65
2021/07/09 14:04:40;;;;;;;22.65;17.90;;;;;;;;;;5121700;27;20051;-64
2021/07/09 14:07:07;;;;;;;28.42;18.70;;;;;;;;;;5112639;28;20032;-64
2021/07/09 14:09:34;;;;;;;28.20;18.40;;;;;;;;;;5112115;28;20039;-64
2021/07/09 14:12:00;;;;;;;27.67;20.17;;;;;;;;;;5095580;28;20487;-64
2021/07/09 14:14:26;;;;;;;30.25;20.98;;;;;;;;;;5112576;28;20042;-63
2021/07/09 14:16:52;;;;;;;27.63;19.13;;;;;;;;;;5107457;28;20548;-65
2021/07/09 14:19:18;;;;;;;25.75;18.05;;;;;;;;;;5106806;27;20517;-64
2021/07/09 14:21:44;;;;;;;29.63;18.55;;;;;;;;;;5113183;27;20028;-64
2021/07/09 14:24:10;;;;;;;28.20;19.25;;;;;;;;;;5094380;28;20031;-64